Time;durP1;ratioP1;P1;durP2;ratioP2;P2;SDS_P1;SDS_P2;PMS_P1;PMS_P2;Temp;Humidity;BMP_temperature;BMP_pressure;BME280_temperature;BME280_humidity;BME280_pressure;Samples;Min_cycle;Max_cycle;Signal;HPM_P1;HPM_P2
2023/12/25 00:01:38;;;;;;;4.18;2.13;;;;;;;10.71;100.00;100419.59;4875370;29;20084;-93
2023/12/25 00:04:05;;;;;;;2.50;2.10;;;;;;;10.72;100.00;100436.91;4882089;29;20051;-94
2023/12/25 00:06:35;;;;;;;3.88;2.30;;;;;;;10.71;100.00;100445.59;4862259;29;20490;-93
2023/12/25 00:09:02;;;;;;;3.28;2.50;;;;;;;10.73;100.00;100436.00;4862036;29;20049;-93
2023/12/25 00:11:28;;;;;;;3.78;2.30;;;;;;;10.73;100.00;100432.53;4884372;29;20518;-93
2023/12/25 00:13:55;;;;;;;2.65;2.40;;;;;;;10.70;100.00;100436.09;4932680;29;20098;-94
2023/12/25 00:16:21;;;;;;;2.97;2.42;;;;;;;10.71;100.00;100442.13;4922641;29;20146;-91
2023/12/25 00:18:47;;;;;;;2.78;2.42;;;;;;;10.69;100.00;100439.59;4900971;29;20083;-94
2023/12/25 00:21:12;;;;;;;3.13;2.60;;;;;;;10.70;100.00;100443.91;4914104;29;20028;-91
2023/12/25 00:23:38;;;;;;;2.67;2.05;;;;;;;10.68;100.00;100431.81;4907790;29;20035;-92
2023/12/25 00:26:03;;;;;;;4.00;2.20;;;;;;;10.68;100.00;100429.22;4902787;29;20028;-92
2023/12/25 00:28:31;;;;;;;3.05;2.40;;;;;;;10.68;100.00;100424.88;4912349;29;20063;-93
2023/12/25 00:30:56;;;;;;;2.97;2.10;;;;;;;10.66;100.00;100418.03;4910584;29;20115;-93
2023/12/25 00:33:22;;;;;;;2.55;2.20;;;;;;;10.64;100.00;100407.66;4904750;29;20540;-95
2023/12/25 00:35:52;;;;;;;3.40;2.22;;;;;;;10.62;100.00;100412.06;4903217;29;20484;-96
2023/12/25 00:38:17;;;;;;;2.72;2.00;;;;;;;10.60;100.00;100411.28;4917218;29;20052;-93
2023/12/25 00:40:43;;;;;;;3.58;2.08;;;;;;;10.62;100.00;100414.69;4880761;29;20034;-95
2023/12/25 00:43:08;;;;;;;2.78;2.30;;;;;;;10.62;100.00;100412.06;4907273;29;20152;-93
2023/12/25 00:45:34;;;;;;;2.83;2.13;;;;;;;10.59;100.00;100417.41;4903843;29;20024;-92
2023/12/25 00:47:59;;;;;;;3.75;2.35;;;;;;;10.61;100.00;100416.44;4903699;29;20457;-93
2023/12/25 00:50:25;;;;;;;4.07;2.60;;;;;;;10.62;100.00;100419.88;4900103;29;20032;-92
2023/12/25 00:52:50;;;;;;;3.65;2.45;;;;;;;10.61;100.00;100423.38;4905088;29;20485;-93
2023/12/25 00:55:15;;;;;;;3.85;2.83;;;;;;;10.61;100.00;100436.38;4900891;29;20519;-91
2023/12/25 00:57:41;;;;;;;3.30;2.58;;;;;;;10.61;100.00;100438.97;4901689;29;20039;-94
2023/12/25 01:00:07;;;;;;;4.15;2.63;;;;;;;10.62;100.00;100444.16;4916768;29;20503;-93
2023/12/25 01:02:47;;;;;;;3.92;2.80;;;;;;;10.65;100.00;100444.97;4901069;29;20424;-94
2023/12/25 01:05:12;;;;;;;3.10;2.50;;;;;;;10.62;100.00;100445.88;4896784;29;20397;-93
2023/12/25 01:07:40;;;;;;;3.95;2.88;;;;;;;10.63;100.00;100465.81;4888068;29;20479;-95
2023/12/25 01:10:07;;;;;;;3.75;2.60;;;;;;;10.65;100.00;100465.78;4923636;29;20020;-93
2023/12/25 01:12:34;;;;;;;4.28;3.00;;;;;;;10.64;100.00;100462.31;4888245;29;20373;-93
2023/12/25 01:15:01;;;;;;;4.25;2.88;;;;;;;10.62;100.00;100454.56;4920245;29;20469;-92
2023/12/25 01:17:27;;;;;;;4.68;3.03;;;;;;;10.66;100.00;100457.91;4894407;29;20134;-93
2023/12/25 01:19:52;;;;;;;4.03;3.00;;;;;;;10.68;100.00;100456.09;4878253;29;20140;-92
2023/12/25 01:22:18;;;;;;;4.05;3.13;;;;;;;10.68;100.00;100458.72;4882978;29;20040;-93
2023/12/25 01:24:44;;;;;;;5.43;3.28;;;;;;;10.70;100.00;100469.06;4882504;29;20024;-94
2023/12/25 01:27:10;;;;;;;5.22;3.33;;;;;;;10.70;100.00;100471.66;4885968;29;20035;-92
2023/12/25 01:29:35;;;;;;;4.45;3.63;;;;;;;10.69;100.00;100470.81;4900839;29;20021;-92
2023/12/25 01:32:00;;;;;;;4.38;3.58;;;;;;;10.71;100.00;100471.63;4885961;29;20025;-94
2023/12/25 01:34:26;;;;;;;4.50;3.47;;;;;;;10.72;100.00;100467.25;4880461;29;20597;-94
2023/12/25 01:36:57;;;;;;;6.32;3.28;;;;;;;10.73;100.00;100475.03;4898604;29;20036;-93
2023/12/25 01:39:27;;;;;;;4.28;3.25;;;;;;;10.70;100.00;100474.25;4881285;29;20028;-93
2023/12/25 01:41:54;;;;;;;4.72;3.40;;;;;;;10.72;100.00;100488.06;4896049;29;20036;-94
2023/12/25 01:44:20;;;;;;;4.28;3.53;;;;;;;10.71;100.00;100492.44;4882681;29;20100;-94
2023/12/25 01:46:47;;;;;;;4.75;3.60;;;;;;;10.73;100.00;100474.16;4894017;29;20041;-93
2023/12/25 01:49:35;;;;;;;5.28;3.63;;;;;;;10.74;100.00;100471.53;4897095;29;20037;-94
2023/12/25 01:52:01;;;;;;;5.40;3.90;;;;;;;10.74;100.00;100473.25;4883133;29;20127;-93
2023/12/25 01:54:26;;;;;;;5.57;3.53;;;;;;;10.73;100.00;100480.25;4881454;29;20068;-93
2023/12/25 01:56:52;;;;;;;5.40;3.50;;;;;;;10.77;100.00;100476.59;4901133;29;20440;-94
2023/12/25 01:59:17;;;;;;;4.32;3.50;;;;;;;10.80;100.00;100480.03;4880078;29;20640;-92
2023/12/25 02:01:42;;;;;;;4.82;3.70;;;;;;;10.80;100.00;100482.63;4881664;29;20092;-93
2023/12/25 02:04:14;;;;;;;5.97;4.20;;;;;;;10.78;100.00;100483.53;4882358;29;20028;-94
2023/12/25 02:06:39;;;;;;;8.07;4.30;;;;;;;10.77;100.00;100481.81;4900110;29;20028;-92
2023/12/25 02:09:05;;;;;;;4.32;3.63;;;;;;;10.80;100.00;100464.41;4883506;29;20031;-91
2023/12/25 02:11:30;;;;;;;5.78;3.88;;;;;;;10.78;100.00;100483.53;4885067;29;20043;-92
2023/12/25 02:13:57;;;;;;;5.50;3.83;;;;;;;10.79;100.00;100489.59;4898108;29;20116;-93
2023/12/25 02:16:23;;;;;;;6.80;4.35;;;;;;;10.80;100.00;100490.44;4882300;29;20020;-91
2023/12/25 02:18:50;;;;;;;5.53;3.97;;;;;;;10.81;100.00;100486.94;4915584;29;20035;-91
2023/12/25 02:21:16;;;;;;;7.22;4.60;;;;;;;10.83;100.00;100491.19;4908347;29;20032;-91
2023/12/25 02:23:44;;;;;;;5.78;4.75;;;;;;;10.83;100.00;100491.19;4914139;29;20389;-91
2023/12/25 02:26:11;;;;;;;5.70;4.68;;;;;;;10.82;100.00;100491.22;4901523;29;20023;-91
2023/12/25 02:28:37;;;;;;;6.43;4.38;;;;;;;10.83;100.00;100496.41;4902254;29;20494;-92
2023/12/25 02:31:03;;;;;;;6.82;4.63;;;;;;;10.83;100.00;100500.75;4900664;29;20047;-91
2023/12/25 02:33:29;;;;;;;6.68;5.13;;;;;;;10.85;100.00;100504.16;4899731;29;20072;-91
2023/12/25 02:35:54;;;;;;;6.22;5.10;;;;;;;10.85;100.00;100509.34;4918600;29;20062;-91
2023/12/25 02:38:19;;;;;;;6.82;5.30;;;;;;;10.85;100.00;100509.34;4901038;29;20079;-91
2023/12/25 02:40:45;;;;;;;9.57;5.40;;;;;;;10.86;100.00;100511.06;4899633;29;20071;-91
2023/12/25 02:43:11;;;;;;;6.45;5.20;;;;;;;10.88;100.00;100504.06;4897226;29;20036;-91
2023/12/25 02:45:37;;;;;;;5.68;4.90;;;;;;;10.87;100.00;100486.72;4904901;29;20028;-91
2023/12/25 02:48:02;;;;;;;6.43;5.20;;;;;;;10.88;100.00;100510.09;4903589;29;20028;-92
2023/12/25 02:50:34;;;;;;;6.97;5.38;;;;;;;10.90;100.00;100505.69;4898956;29;20016;-95
2023/12/25 02:53:03;;;;;;;5.25;4.68;;;;;;;10.92;100.00;100534.28;4916302;29;20024;-93
2023/12/25 02:55:28;;;;;;;6.85;4.93;;;;;;;10.93;100.00;100518.63;4899627;29;20032;-94
2023/12/25 02:57:54;;;;;;;5.65;4.82;;;;;;;10.94;100.00;100514.25;4901685;29;20035;-91
2023/12/25 03:00:19;;;;;;;5.53;4.18;;;;;;;10.98;100.00;100517.63;4907258;29;20056;-92
2023/12/25 03:02:45;;;;;;;5.88;4.68;;;;;;;10.99;100.00;100527.97;4903769;29;20046;-93
2023/12/25 03:05:10;;;;;;;5.70;4.32;;;;;;;10.98;100.00;100523.66;4910128;29;20027;-91
2023/12/25 03:07:35;;;;;;;6.47;4.32;;;;;;;11.00;100.00;100519.25;4920971;29;20036;-90
2023/12/25 03:10:01;;;;;;;5.32;4.20;;;;;;;11.01;100.00;100514.94;4918308;29;20171;-92
2023/12/25 03:12:26;;;;;;;5.32;4.38;;;;;;;11.01;100.00;100520.13;4917573;29;20028;-90
2023/12/25 03:14:52;;;;;;;6.85;4.50;;;;;;;11.02;100.00;100507.06;4919907;29;20484;-90
2023/12/25 03:17:17;;;;;;;6.82;4.45;;;;;;;11.06;100.00;100516.47;4918253;29;20131;-91
2023/12/25 03:19:42;;;;;;;6.00;4.20;;;;;;;11.04;100.00;100523.47;4917532;29;20040;-91
2023/12/25 03:22:07;;;;;;;7.90;4.53;;;;;;;11.04;100.00;100520.00;4915837;29;20080;-90
2023/12/25 03:24:33;;;;;;;7.60;3.92;;;;;;;11.04;100.00;100515.66;4919191;29;20094;-89
2023/12/25 03:26:58;;;;;;;5.93;4.43;;;;;;;11.07;100.00;100515.56;4916887;29;20039;-89
2023/12/25 03:29:24;;;;;;;5.30;4.43;;;;;;;11.06;100.00;100516.47;4917540;29;20043;-90
2023/12/25 03:31:49;;;;;;;7.00;4.30;;;;;;;11.06;100.00;100524.28;4905035;29;20024;-91
2023/12/25 03:34:18;;;;;;;5.10;4.43;;;;;;;11.08;100.00;100526.81;4903645;29;20488;-90
2023/12/25 03:36:43;;;;;;;4.78;4.10;;;;;;;11.05;100.00;100522.56;4918154;29;20083;-90
2023/12/25 03:39:09;;;;;;;7.47;4.35;;;;;;;11.08;100.00;100519.88;4918094;29;20037;-90
2023/12/25 03:41:34;;;;;;;6.65;4.20;;;;;;;11.09;100.00;100523.31;4916370;29;20172;-90
2023/12/25 03:43:59;;;;;;;5.97;4.55;;;;;;;11.09;100.00;100525.91;4916684;29;20515;-89
2023/12/25 03:46:25;;;;;;;5.85;4.30;;;;;;;11.10;100.00;100519.81;4918092;29;20403;-90
2023/12/25 03:48:50;;;;;;;6.78;4.50;;;;;;;11.08;100.00;100522.47;4916580;29;20487;-89
2023/12/25 03:51:15;;;;;;;5.90;4.40;;;;;;;11.10;100.00;100530.22;4901027;29;20501;-89
2023/12/25 03:53:41;;;;;;;9.40;5.30;;;;;;;11.10;100.00;100524.19;4916414;29;20035;-92
2023/12/25 03:56:06;;;;;;;6.60;4.75;;;;;;;11.10;100.00;100534.59;4900897;29;20521;-89
2023/12/25 03:58:34;;;;;;;5.60;4.43;;;;;;;11.11;100.00;100525.84;4902797;29;20036;-89
2023/12/25 04:01:00;;;;;;;5.95;3.85;;;;;;;11.12;100.00;100543.19;4915821;29;20024;-90
2023/12/25 04:03:25;;;;;;;7.30;4.65;;;;;;;11.14;100.00;100546.59;4899776;29;20036;-90
2023/12/25 04:05:50;;;;;;;7.15;4.30;;;;;;;11.10;100.00;100545.00;4899167;29;20028;-89
2023/12/25 04:08:16;;;;;;;5.03;4.30;;;;;;;11.11;100.00;100544.94;4915999;29;20040;-89
2023/12/25 04:10:41;;;;;;;8.00;4.43;;;;;;;11.08;100.00;100532.91;4900531;29;20040;-92
2023/12/25 04:13:06;;;;;;;4.40;4.00;;;;;;;11.08;100.00;100538.09;4901569;29;20043;-90
2023/12/25 04:15:32;;;;;;;6.28;4.25;;;;;;;11.10;100.00;100532.00;4926210;29;20028;-89
2023/12/25 04:17:57;;;;;;;4.93;4.10;;;;;;;11.06;100.00;100526.88;4927737;28;20058;-91
2023/12/25 04:20:22;;;;;;;8.63;4.10;;;;;;;11.06;100.00;100539.03;4922672;29;20035;-89
2023/12/25 04:22:49;;;;;;;5.40;3.67;;;;;;;11.04;100.00;100543.44;4922462;29;20024;-89
2023/12/25 04:25:14;;;;;;;5.60;3.78;;;;;;;11.01;100.00;100531.38;4900356;29;20111;-89
2023/12/25 04:27:39;;;;;;;5.10;3.45;;;;;;;11.02;100.00;100534.81;4919205;29;20154;-89
2023/12/25 04:30:06;;;;;;;4.82;3.83;;;;;;;11.00;100.00;100518.44;4899667;29;20309;-90
2023/12/25 04:32:31;;;;;;;6.63;3.88;;;;;;;10.97;100.00;100518.53;4900994;29;20036;-93
2023/12/25 04:34:56;;;;;;;5.57;3.75;;;;;;;10.91;100.00;100516.97;4903633;29;20110;-92
2023/12/25 04:37:22;;;;;;;5.30;3.70;;;;;;;10.91;100.00;100519.56;4917540;29;20432;-91
2023/12/25 04:39:47;;;;;;;5.10;3.30;;;;;;;10.89;100.00;100517.00;4900868;29;20115;-90
2023/12/25 04:42:13;;;;;;;5.32;3.47;;;;;;;10.88;100.00;100522.28;4903079;29;20107;-91
2023/12/25 04:44:38;;;;;;;3.90;3.17;;;;;;;10.85;100.00;100519.75;4917208;29;20036;-92
2023/12/25 04:47:04;;;;;;;4.25;3.08;;;;;;;10.84;100.00;100523.25;4903517;29;20488;-91
2023/12/25 04:49:29;;;;;;;4.43;3.20;;;;;;;10.82;100.00;100519.84;4917547;29;20059;-91
2023/12/25 04:51:54;;;;;;;7.93;3.05;;;;;;;10.81;100.00;100512.94;4917526;29;20056;-90
2023/12/25 04:54:20;;;;;;;3.78;3.00;;;;;;;10.80;100.00;100511.25;4919694;29;20028;-90
2023/12/25 04:56:45;;;;;;;4.05;3.10;;;;;;;10.78;100.00;100509.53;4898285;29;20039;-90
2023/12/25 04:59:10;;;;;;;4.90;3.08;;;;;;;10.77;100.00;100513.03;4901738;29;20028;-91
2023/12/25 05:01:36;;;;;;;5.18;2.70;;;;;;;10.75;100.00;100520.06;4902512;29;20440;-91
2023/12/25 05:04:02;;;;;;;3.47;2.50;;;;;;;10.74;100.00;100513.16;4899891;29;20032;-90
2023/12/25 05:06:27;;;;;;;3.30;2.47;;;;;;;10.72;100.00;100509.75;4920698;29;20113;-91
2023/12/25 05:08:53;;;;;;;2.97;2.28;;;;;;;10.70;100.00;100495.94;4903019;29;20028;-92
2023/12/25 05:11:19;;;;;;;5.95;2.70;;;;;;;10.69;100.00;100507.25;4919865;29;20035;-91
2023/12/25 05:13:44;;;;;;;2.88;2.40;;;;;;;10.68;100.00;100508.16;4901138;29;20111;-91
2023/12/25 05:16:10;;;;;;;3.08;2.22;;;;;;;10.67;100.00;100510.81;4916577;29;20073;-91
2023/12/25 05:18:35;;;;;;;2.95;2.25;;;;;;;10.65;100.00;100508.22;4899334;29;20142;-91
2023/12/25 05:21:01;;;;;;;2.70;1.90;;;;;;;10.67;100.00;100514.25;4900617;29;20031;-91
2023/12/25 05:23:26;;;;;;;2.15;1.95;;;;;;;10.68;100.00;100509.88;4916881;29;20039;-92
2023/12/25 05:25:52;;;;;;;1.95;1.75;;;;;;;10.67;100.00;100509.03;4901500;29;20492;-91
2023/12/25 05:28:17;;;;;;;2.80;1.92;;;;;;;10.66;100.00;100512.53;4901444;29;20035;-90
2023/12/25 05:30:42;;;;;;;2.10;1.85;;;;;;;10.68;100.00;100502.06;4901702;29;20079;-89
2023/12/25 05:33:08;;;;;;;4.40;2.22;;;;;;;10.70;100.00;100511.56;4899175;29;20487;-90
2023/12/25 05:35:34;;;;;;;2.55;2.10;;;;;;;10.70;100.00;100500.28;4898165;29;20020;-91
2023/12/25 05:37:59;;;;;;;3.45;2.20;;;;;;;10.68;100.00;100502.94;4915951;29;20128;-92
2023/12/25 05:40:25;;;;;;;3.83;2.53;;;;;;;10.67;100.00;100505.59;4902358;29;20111;-91
2023/12/25 05:42:50;;;;;;;4.95;2.25;;;;;;;10.65;100.00;100507.41;4922031;29;20406;-91
2023/12/25 05:45:16;;;;;;;4.93;2.83;;;;;;;10.63;100.00;100505.69;4916171;29;20095;-92
2023/12/25 05:47:41;;;;;;;4.45;2.50;;;;;;;10.60;100.00;100515.31;4914243;29;20039;-91
2023/12/25 05:50:09;;;;;;;5.32;2.35;;;;;;;10.58;100.00;100497.16;4901726;29;20030;-91
2023/12/25 05:52:35;;;;;;;3.35;2.53;;;;;;;10.58;100.00;100504.13;4916131;29;20156;-91
2023/12/25 05:55:00;;;;;;;4.65;2.80;;;;;;;10.58;100.00;100506.75;4918025;29;20099;-91
2023/12/25 05:57:28;;;;;;;4.30;2.90;;;;;;;10.56;100.00;100503.34;4915215;29;20403;-90
2023/12/25 05:59:53;;;;;;;3.92;2.70;;;;;;;10.53;100.00;100501.66;4916975;29;20024;-91
2023/12/25 06:02:19;;;;;;;7.40;2.80;;;;;;;10.54;100.00;100508.56;4916018;29;20111;-92
2023/12/25 06:04:44;;;;;;;4.55;3.20;;;;;;;10.53;100.00;100519.88;4897313;29;20032;-91
2023/12/25 06:07:11;;;;;;;4.40;2.95;;;;;;;10.52;100.00;100514.72;4915230;29;20047;-90
2023/12/25 06:09:37;;;;;;;4.85;3.28;;;;;;;10.54;100.00;100515.53;4898019;29;20028;-90
2023/12/25 06:12:02;;;;;;;5.15;2.85;;;;;;;10.54;100.00;100510.31;4917830;29;20035;-90
2023/12/25 06:14:27;;;;;;;5.05;3.10;;;;;;;10.54;100.00;100510.31;4898022;29;20496;-91
2023/12/25 06:16:53;;;;;;;4.85;2.88;;;;;;;10.54;100.00;100512.94;4897166;29;20496;-90
2023/12/25 06:19:18;;;;;;;4.25;2.60;;;;;;;10.51;100.00;100510.41;4914475;29;20110;-89
2023/12/25 06:21:43;;;;;;;4.65;2.97;;;;;;;10.52;100.00;100507.75;4920981;29;20024;-90
2023/12/25 06:24:09;;;;;;;4.32;2.65;;;;;;;10.51;100.00;100520.81;4917784;29;20024;-91
2023/12/25 06:26:34;;;;;;;4.00;2.83;;;;;;;10.51;100.00;100507.81;4904313;29;20110;-91
2023/12/25 06:29:00;;;;;;;4.07;2.88;;;;;;;10.51;100.00;100507.81;4917204;29;20074;-92
2023/12/25 06:31:25;;;;;;;4.07;2.90;;;;;;;10.48;100.00;100512.22;4898558;29;20024;-91
2023/12/25 06:33:51;;;;;;;3.30;2.53;;;;;;;10.49;100.00;100510.47;4920590;29;20031;-92
2023/12/25 06:36:16;;;;;;;3.50;2.38;;;;;;;10.50;100.00;100513.91;4917323;29;20391;-93
2023/12/25 06:38:42;;;;;;;5.03;2.50;;;;;;;10.50;100.00;100513.91;4898825;29;20032;-91
2023/12/25 06:41:10;;;;;;;2.83;2.30;;;;;;;10.49;100.00;100507.88;4915828;29;20039;-90
2023/12/25 06:43:35;;;;;;;3.30;2.30;;;;;;;10.50;100.00;100513.91;4913192;29;20449;-93
2023/12/25 06:46:00;;;;;;;3.10;2.17;;;;;;;10.48;100.00;100501.81;4899916;29;20100;-91
2023/12/25 06:48:26;;;;;;;2.85;2.10;;;;;;;10.49;100.00;100507.88;4896439;29;20043;-90
2023/12/25 06:50:51;;;;;;;2.40;2.10;;;;;;;10.48;100.00;100504.41;4916030;29;20024;-90
2023/12/25 06:53:16;;;;;;;5.55;2.05;;;;;;;10.49;100.00;100513.06;4896086;29;20110;-91
2023/12/25 06:55:41;;;;;;;2.60;2.25;;;;;;;10.47;100.00;100527.88;4915193;29;20103;-89
2023/12/25 06:58:07;;;;;;;2.78;2.13;;;;;;;10.46;100.00;100555.63;4915862;29;20131;-90
2023/12/25 07:00:32;;;;;;;5.45;1.42;;;;;;;10.43;100.00;100566.09;4915282;29;20031;-92
2023/12/25 07:02:57;;;;;;;1.30;1.10;;;;;;;10.29;100.00;100581.22;4912882;29;20083;-91
2023/12/25 07:05:23;;;;;;;1.33;0.50;;;;;;;10.12;100.00;100566.97;4914108;29;20087;-91
2023/12/25 07:07:48;;;;;;;0.70;0.60;;;;;;;10.00;100.00;100568.16;4917399;29;20060;-90
2023/12/25 07:10:14;;;;;;;2.72;0.50;;;;;;;9.86;100.00;100567.69;4899177;29;20028;-90
2023/12/25 07:12:39;;;;;;;0.50;0.40;;;;;;;9.76;100.00;100554.09;4917347;29;20027;-91
2023/12/25 07:15:05;;;;;;;0.50;0.30;;;;;;;9.69;100.00;100562.97;4917175;29;20028;-90
2023/12/25 07:17:32;;;;;;;0.98;0.40;;;;;;;9.59;100.00;100575.34;4919841;29;20403;-91
2023/12/25 07:19:57;;;;;;;0.77;0.40;;;;;;;9.51;100.00;100575.53;4899860;29;20038;-90
2023/12/25 07:22:23;;;;;;;0.60;0.30;;;;;;;9.46;100.00;100577.38;4913143;29;20032;-89
2023/12/25 07:24:48;;;;;;;0.47;0.30;;;;;;;9.43;100.00;100585.25;4915746;29;20051;-89
2023/12/25 07:27:13;;;;;;;0.60;0.30;;;;;;;9.39;100.00;100587.06;4900600;29;20084;-91
2023/12/25 07:29:39;;;;;;;1.38;0.35;;;;;;;9.33;100.00;100587.22;4899091;29;20083;-92
2023/12/25 07:32:04;;;;;;;0.88;0.35;;;;;;;9.29;100.00;100580.41;4902884;29;20068;-91
2023/12/25 07:34:31;;;;;;;1.50;0.50;;;;;;;9.26;100.00;100586.53;4898121;29;20054;-91
2023/12/25 07:36:57;;;;;;;1.05;0.35;;;;;;;9.24;100.00;100588.28;4899315;29;20032;-91
2023/12/25 07:39:22;;;;;;;0.75;0.30;;;;;;;9.20;100.00;100586.69;4897086;29;20024;-91
2023/12/25 07:41:47;;;;;;;0.88;0.40;;;;;;;9.17;100.00;100586.75;4900249;29;20038;-92
2023/12/25 07:44:13;;;;;;;1.48;0.45;;;;;;;9.20;100.00;100596.19;4915903;29;20055;-92
2023/12/25 07:46:38;;;;;;;1.58;0.40;;;;;;;9.15;100.00;100596.31;4918884;29;20111;-91
2023/12/25 07:49:03;;;;;;;1.10;0.30;;;;;;;9.10;100.00;100601.63;4902427;29;20526;-90
2023/12/25 07:51:29;;;;;;;0.95;0.40;;;;;;;9.09;100.00;100599.03;4924853;29;20028;-90
2023/12/25 07:53:54;;;;;;;0.68;0.30;;;;;;;9.08;100.00;100592.16;4917798;29;20036;-91
2023/12/25 07:56:20;;;;;;;0.95;0.30;;;;;;;9.08;100.00;100603.41;4903118;29;20059;-92
2023/12/25 07:58:45;;;;;;;1.55;0.45;;;;;;;9.07;100.00;100603.41;4901683;29;20052;-91
2023/12/25 08:01:12;;;;;;;0.50;0.30;;;;;;;9.08;100.00;100607.72;4919063;29;20387;-91
2023/12/25 08:03:37;;;;;;;0.20;0.20;;;;;;;9.08;100.00;100618.09;4904891;29;20048;-89
2023/12/25 08:06:03;;;;;;;0.50;0.30;;;;;;;9.08;100.00;100639.72;4918479;29;20036;-91
2023/12/25 08:08:29;;;;;;;0.30;0.30;;;;;;;9.08;100.00;100623.28;4901325;29;20024;-91
2023/12/25 08:10:54;;;;;;;0.47;0.25;;;;;;;9.07;100.00;100616.41;4923742;29;20028;-91
2023/12/25 08:13:20;;;;;;;0.75;0.32;;;;;;;9.07;100.00;100629.38;4919646;29;20075;-92
2023/12/25 08:15:45;;;;;;;0.47;0.25;;;;;;;9.08;100.00;100628.47;4902339;29;20036;-92
2023/12/25 08:18:10;;;;;;;0.50;0.30;;;;;;;9.08;100.00;100623.28;4901462;29;20492;-93
2023/12/25 08:20:36;;;;;;;1.08;0.30;;;;;;;9.07;100.00;100624.19;4900612;29;20056;-91
2023/12/25 08:23:02;;;;;;;0.60;0.30;;;;;;;9.06;100.00;100631.13;4906754;29;20114;-92
2023/12/25 08:25:28;;;;;;;0.85;0.40;;;;;;;9.11;100.00;100637.06;4922189;29;20027;-93
2023/12/25 08:27:53;;;;;;;0.63;0.30;;;;;;;9.09;100.00;100640.56;4903060;29;20034;-92
2023/12/25 08:30:20;;;;;;;0.30;0.30;;;;;;;9.09;100.00;100641.44;4902250;29;20024;-92
2023/12/25 08:32:45;;;;;;;0.70;0.40;;;;;;;9.09;100.00;100645.75;4921449;29;20039;-92
2023/12/25 08:35:10;;;;;;;0.55;0.28;;;;;;;9.10;100.00;100648.34;4924024;29;20032;-91
2023/12/25 08:37:36;;;;;;;0.38;0.30;;;;;;;9.13;100.00;100646.56;4905563;29;20059;-92
2023/12/25 08:40:05;;;;;;;1.38;0.30;;;;;;;9.10;100.00;100637.97;4922719;29;20142;-93
2023/12/25 08:42:30;;;;;;;0.68;0.30;;;;;;;9.11;100.00;100636.19;4921027;29;20052;-92
2023/12/25 08:44:56;;;;;;;1.13;0.38;;;;;;;9.13;100.00;100641.38;4902270;29;20032;-92
2023/12/25 08:47:22;;;;;;;0.60;0.30;;;;;;;9.14;100.00;100640.50;4904376;29;20028;-93
2023/12/25 08:49:48;;;;;;;1.10;0.30;;;;;;;9.11;100.00;100655.25;4909056;29;20507;-93
2023/12/25 08:52:16;;;;;;;0.65;0.30;;;;;;;9.15;100.00;100649.94;4906863;29;20066;-94
2023/12/25 08:54:42;;;;;;;0.50;0.30;;;;;;;9.16;100.00;100662.03;4898491;29;20550;-93
2023/12/25 08:57:07;;;;;;;0.52;0.30;;;;;;;9.16;100.00;100657.72;4906187;29;20087;-94
2023/12/25 08:59:36;;;;;;;0.30;0.30;;;;;;;9.17;100.00;100656.84;4906283;29;20032;-94
2023/12/25 09:02:04;;;;;;;0.57;0.30;;;;;;;9.16;100.00;100657.72;4904531;29;20027;-93
2023/12/25 09:04:29;;;;;;;0.40;0.38;;;;;;;9.16;100.00;100654.25;4916186;29;20028;-92
2023/12/25 09:06:55;;;;;;;1.65;0.30;;;;;;;9.19;100.00;100649.88;4919768;29;20035;-93
2023/12/25 09:09:21;;;;;;;2.00;0.30;;;;;;;9.18;100.00;100648.16;4920484;29;20028;-94
2023/12/25 09:11:47;;;;;;;0.20;0.20;;;;;;;9.21;100.00;100648.09;4919598;29;20024;-92
2023/12/25 09:14:15;;;;;;;0.47;0.25;;;;;;;9.24;100.00;100660.97;4921508;29;20416;-91
2023/12/25 09:16:40;;;;;;;0.98;0.20;;;;;;;9.23;100.00;100664.47;4908212;29;20024;-91
2023/12/25 09:19:06;;;;;;;0.43;0.30;;;;;;;9.22;100.00;100672.28;4905235;29;20115;-92
2023/12/25 09:21:38;;;;;;;0.65;0.30;;;;;;;9.23;100.00;100674.84;4929178;29;20079;-92
2023/12/25 09:24:04;;;;;;;0.32;0.30;;;;;;;9.22;100.00;100683.53;4905917;29;20550;-92
2023/12/25 09:26:30;;;;;;;0.63;0.40;;;;;;;9.23;100.00;100684.38;4920875;29;20170;-91
2023/12/25 09:28:55;;;;;;;1.42;0.60;;;;;;;9.24;100.00;100699.91;4907294;29;20039;-90
2023/12/25 09:31:21;;;;;;;0.45;0.40;;;;;;;9.22;100.00;100706.88;4926049;29;20024;-91
2023/12/25 09:33:47;;;;;;;0.73;0.40;;;;;;;9.19;100.00;100722.53;4909135;29;20036;-91
2023/12/25 09:36:12;;;;;;;1.88;0.60;;;;;;;9.19;100.00;100729.47;4922721;29;20031;-90
2023/12/25 09:38:37;;;;;;;0.85;0.40;;;;;;;9.17;100.00;100719.13;4922072;29;20035;-93
2023/12/25 09:41:07;;;;;;;0.70;0.50;;;;;;;9.18;100.00;100720.84;4902864;29;20038;-92
2023/12/25 09:43:37;;;;;;;0.90;0.43;;;;;;;9.20;100.00;100725.97;4919539;29;20039;-93
2023/12/25 09:46:02;;;;;;;0.65;0.47;;;;;;;9.20;100.00;100719.06;4921802;29;20510;-93
2023/12/25 09:48:28;;;;;;;0.32;0.32;;;;;;;9.20;100.00;100716.47;4899752;29;20063;-90
2023/12/25 09:50:57;;;;;;;1.38;0.38;;;;;;;9.23;100.00;100716.38;4902214;29;20028;-92
2023/12/25 09:53:22;;;;;;;1.77;0.40;;;;;;;9.26;100.00;100710.28;4894779;29;20029;-92
2023/12/25 09:55:49;;;;;;;0.45;0.30;;;;;;;9.29;100.00;100718.00;4899737;29;20459;-90
2023/12/25 09:58:15;;;;;;;0.77;0.25;;;;;;;9.30;100.00;100695.47;4902618;29;20506;-91
2023/12/25 10:00:41;;;;;;;1.60;0.50;;;;;;;9.32;100.00;100701.50;4918659;29;20032;-92
2023/12/25 10:03:07;;;;;;;2.13;0.40;;;;;;;9.32;100.00;100710.13;4900089;29;20388;-90
2023/12/25 10:05:32;;;;;;;1.02;0.30;;;;;;;9.31;100.00;100698.03;4918497;29;20028;-90
2023/12/25 10:07:58;;;;;;;0.70;0.40;;;;;;;9.32;100.00;100694.56;4909734;29;20511;-89
2023/12/25 10:10:29;;;;;;;1.98;0.25;;;;;;;9.36;100.00;100700.53;4917277;29;20031;-91
2023/12/25 10:12:55;;;;;;;;;;;;;;;9.41;100.00;100698.66;4901447;29;20548;-92
2023/12/25 10:15:27;;;;;;;0.65;0.30;;;;;;;9.41;100.00;100706.47;4918752;29;20006;-95
2023/12/25 10:18:03;;;;;;;0.20;0.20;;;;;;;9.39;100.00;100714.31;4900236;29;20440;-92
2023/12/25 10:20:29;;;;;;;0.30;0.20;;;;;;;9.37;100.00;100717.84;4898434;29;20099;-92
2023/12/25 10:22:55;;;;;;;0.70;0.20;;;;;;;9.37;100.00;100721.28;4917396;29;20031;-92
2023/12/25 10:25:26;;;;;;;0.90;0.30;;;;;;;9.38;100.00;100711.75;4902225;29;20032;-90
2023/12/25 10:27:52;;;;;;;1.63;0.30;;;;;;;9.38;100.00;100710.00;4916614;29;20034;-89
2023/12/25 10:30:18;;;;;;;0.25;0.20;;;;;;;9.38;100.00;100712.59;4916751;29;20041;-89
2023/12/25 10:32:44;;;;;;;1.17;0.30;;;;;;;9.38;100.00;100717.78;4915747;29;20036;-90
2023/12/25 10:35:11;;;;;;;0.47;0.30;;;;;;;9.37;100.00;100710.88;4916956;29;20441;-89
2023/12/25 10:37:39;;;;;;;0.20;0.20;;;;;;;9.37;100.00;100715.25;4915357;29;20044;-91
2023/12/25 10:40:26;;;;;;;0.50;0.30;;;;;;;9.35;100.00;100724.81;4899249;29;20032;-91
2023/12/25 10:42:55;;;;;;;0.70;0.40;;;;;;;9.34;100.00;100725.69;4923941;29;20036;-93
2023/12/25 10:45:25;;;;;;;0.40;0.30;;;;;;;9.31;100.00;100728.34;4908419;29;20024;-90
2023/12/25 10:47:56;;;;;;;1.70;0.40;;;;;;;9.24;100.00;100720.69;4913033;29;20395;-90
2023/12/25 10:50:25;;;;;;;1.10;0.40;;;;;;;9.19;100.00;100725.16;4913937;29;20032;-89
2023/12/25 10:52:51;;;;;;;1.30;0.40;;;;;;;9.15;100.00;100702.72;4912946;29;20048;-87
2023/12/25 10:55:35;;;;;;;1.10;0.40;;;;;;;9.12;100.00;100702.78;4912166;29;20084;-91
2023/12/25 10:58:02;;;;;;;2.38;0.50;;;;;;;9.09;100.00;100714.09;4897709;29;20043;-90
2023/12/25 11:00:29;;;;;;;2.10;0.32;;;;;;;9.09;100.00;100713.22;4912968;29;20055;-88
2023/12/25 11:02:57;;;;;;;2.00;0.32;;;;;;;9.10;100.00;100700.25;4897436;29;20031;-88
2023/12/25 11:05:23;;;;;;;1.40;0.40;;;;;;;9.12;100.00;100713.19;4897035;29;20043;-90
2023/12/25 11:07:50;;;;;;;1.05;0.30;;;;;;;9.13;100.00;100704.50;4914733;29;20028;-88
2023/12/25 11:10:16;;;;;;;1.45;0.30;;;;;;;9.18;100.00;100712.19;4914521;29;20174;-88
2023/12/25 11:12:43;;;;;;;2.17;0.40;;;;;;;9.21;100.00;100712.13;4897350;29;20028;-88
2023/12/25 11:15:08;;;;;;;1.83;0.40;;;;;;;9.21;100.00;100718.19;4914134;29;20036;-88